»·PEaware :: N221XG KPSP-KSNA

N221XG :: KPSP-KSNA

FLIGHT INFORMATION

Flight Status: Arrived
Operator: Privately registered:
United States
More flights under this callsign
Pilot: Ryan L. (9775)
Aircraft: BEECH AIRCRAFT SUPER KING AIR 350
(B350)
More flights by this aircraft type
Origin: KPSP Palm Springs Intl
United States
Destination: KSNA John Wayne-Orange Co
United States
More flights between these airports :: More routes between these airports
Route: +CATH1 PSP V388 DEWAY HDF KAYOH7
File this flight plan on PilotEdge
Remarks:
Altitude:
(Current/Filed)
12,000ft
Speed:
(Current/Filed)
250kts
Departed: 20-Apr-19 01:19 PM
Arrived: 20-Apr-19 01:57 PM
Distance/Time
Traveled:
69nm/0:37
Distance/Time
To Go:
Arrived

Flight Plot

Page will automatically refresh every two minutes.


Map Options




Map Legend


Flown Route
Filed Route
Departure Airport
Arrival Airport
Navaid (VOR, NDB)
Fix

Horizontal Profiles

Position Reports

Time Latitude Longitude Heading Altitude Ground
Speed
20-Apr-19 12:58 33.825352 -116.509542 90 482ft 0kts
20-Apr-19 12:59 33.825352 -116.509542 90 482ft 0kts
20-Apr-19 13:00 33.825352 -116.509542 90 482ft 0kts
20-Apr-19 13:01 33.825352 -116.509542 90 482ft 0kts
20-Apr-19 13:02 33.825352 -116.509542 90 482ft 0kts
20-Apr-19 13:03 33.825352 -116.509542 90 482ft 0kts
20-Apr-19 13:04 33.825352 -116.509542 90 482ft 0kts
20-Apr-19 13:05 33.825352 -116.509542 90 482ft 0kts
20-Apr-19 13:06 33.825352 -116.509542 90 482ft 0kts
20-Apr-19 13:07 33.825352 -116.509542 90 482ft 0kts
20-Apr-19 13:08 33.825352 -116.509542 90 482ft 0kts
20-Apr-19 13:09 33.825352 -116.509542 90 482ft 0kts
20-Apr-19 13:10 33.825348 -116.507719 88 482ft 6kts
20-Apr-19 13:11 33.824422 -116.504976 143 482ft 15kts
20-Apr-19 13:12 33.820008 -116.501089 143 482ft 22kts
20-Apr-19 13:13 33.818517 -116.498956 87 482ft 0kts
20-Apr-19 13:14 33.818517 -116.498956 87 482ft 0kts
20-Apr-19 13:15 33.818517 -116.498956 87 482ft 0kts
20-Apr-19 13:16 33.818517 -116.498956 87 482ft 0kts
20-Apr-19 13:17 33.819048 -116.498196 324 482ft 6kts
20-Apr-19 13:19 33.838759 -116.515014 319 1398ft 128kts
20-Apr-19 13:20 33.869294 -116.544793 318 3614ft 153kts
20-Apr-19 13:21 33.904332 -116.573396 4 5758ft 172kts
20-Apr-19 13:22 33.908078 -116.523821 121 7703ft 186kts
20-Apr-19 13:23 33.884076 -116.467252 116 9747ft 193kts
20-Apr-19 13:24 33.861527 -116.408245 120 11675ft 199kts
20-Apr-19 13:25 33.831558 -116.338884 119 12021ft 266kts
20-Apr-19 13:26 33.824616 -116.252011 49 11997ft 288kts
20-Apr-19 13:27 33.891952 -116.253618 303 12002ft 271kts
20-Apr-19 13:28 33.911400 -116.340295 281 12003ft 270kts
20-Apr-19 13:29 33.928070 -116.428633 281 12001ft 269kts
20-Apr-19 13:30 33.944740 -116.516558 282 12001ft 268kts
20-Apr-19 13:31 33.942102 -116.605810 269 11999ft 266kts
20-Apr-19 13:32 33.940318 -116.694340 267 12001ft 267kts
20-Apr-19 13:33 33.938206 -116.783711 267 12003ft 266kts
20-Apr-19 13:34 33.933359 -116.872701 246 11987ft 266kts
20-Apr-19 13:35 33.891596 -116.946326 236 12047ft 266kts
20-Apr-19 13:36 33.854170 -117.022893 241 12102ft 264kts
20-Apr-19 13:37 33.817351 -117.099762 241 12161ft 263kts
20-Apr-19 13:38 33.780082 -117.177505 241 11435ft 276kts
20-Apr-19 13:39 33.769561 -117.264038 291 10192ft 270kts
20-Apr-19 13:40 33.783580 -117.344922 266 8632ft 237kts
20-Apr-19 13:41 33.782192 -117.422375 270 8191ft 236kts
20-Apr-19 13:41 33.782762 -117.489579 271 8186ft 244kts
20-Apr-19 13:43 33.784143 -117.585035 281 7777ft 241kts
20-Apr-19 13:44 33.796781 -117.658706 281 6483ft 203kts
20-Apr-19 13:45 33.807252 -117.719889 281 5901ft 188kts
20-Apr-19 13:46 33.817556 -117.783637 263 4402ft 198kts
20-Apr-19 13:46 33.783486 -117.813066 197 3265ft 185kts
20-Apr-19 13:48 33.733970 -117.833606 204 1683ft 135kts
20-Apr-19 13:48 33.708136 -117.848460 204 743ft 111kts
20-Apr-19 13:49 33.682181 -117.864755 206 92ft 98kts
20-Apr-19 13:50 33.657064 -117.881542 211 696ft 128kts
20-Apr-19 13:51 33.663629 -117.915954 344 1578ft 146kts
20-Apr-19 13:52 33.699950 -117.897639 34 1752ft 139kts
20-Apr-19 13:53 33.725312 -117.868929 99 1148ft 115kts
20-Apr-19 13:54 33.707470 -117.849219 193 703ft 107kts
20-Apr-19 13:55 33.682256 -117.864680 206 88ft 95kts
20-Apr-19 13:56 33.672339 -117.870949 208 61ft 23kts
20-Apr-19 13:57 33.669314 -117.871798 132 61ft 0kts
20-Apr-19 13:58 33.669314 -117.871798 132 61ft 0kts
20-Apr-19 13:59 33.669314 -117.871798 132 61ft 0kts
20-Apr-19 14:00 33.668153 -117.871916 219 61ft 11kts
20-Apr-19 14:01 33.666464 -117.873282 141 61ft 5kts
20-Apr-19 14:02 33.665873 -117.872800 223 61ft 0kts
20-Apr-19 14:03 33.665874 -117.872800 223 61ft 0kts
20-Apr-19 14:04 33.665874 -117.872800 223 61ft 0kts
20-Apr-19 14:05 33.665874 -117.872800 223 61ft 0kts
20-Apr-19 14:06 33.665874 -117.872800 223 61ft 0kts
20-Apr-19 14:07 33.665874 -117.872800 223 61ft 0kts

Navigation Log

Ident Type
Flight plan parsing failed, navigation log unavailable